Time,TemperatureF,DewpointF,PressureIn,WindDirection,WindDirectionDegrees,WindSpeedMPH,WindSpeedGustMPH,Humidity,HourlyPrecipIn,Conditions,Clouds,dailyrainin,SolarRadiationWatts/m^2,SoftwareType,DateUTC
2013-05-19 00:12:00,32.0,31.0,-100.00,SW,216,6.0,10.0,97,0.00,,,0.03,0.000000,,2013-05-19 06:12:00,
2013-05-19 00:21:00,32.0,31.0,-100.00,SW,216,6.0,10.0,97,0.00,,,0.03,0.000000,,2013-05-19 06:21:00,
2013-05-19 00:32:00,32.0,31.0,-100.00,SW,216,6.0,10.0,97,0.00,,,0.03,0.000000,,2013-05-19 06:32:00,
2013-05-19 00:42:00,32.0,31.0,-100.00,SW,216,6.0,10.0,97,0.00,,,0.03,0.000000,,2013-05-19 06:42:00,
2013-05-19 01:11:00,33.0,30.0,-100.00,SW,235,4.0,9.0,90,0.00,,,0.03,0.000000,,2013-05-19 07:11:00,
2013-05-19 01:21:00,33.0,30.0,-100.00,SW,235,4.0,9.0,90,0.00,,,0.03,0.000000,,2013-05-19 07:21:00,
2013-05-19 01:32:00,33.0,30.0,-100.00,SW,235,4.0,9.0,90,0.00,,,0.03,0.000000,,2013-05-19 07:32:00,
2013-05-19 01:41:00,33.0,30.0,-100.00,SW,235,4.0,9.0,90,0.00,,,0.03,0.000000,,2013-05-19 07:41:00,
2013-05-19 02:12:00,32.0,31.0,-100.00,SW,224,2.0,6.0,97,0.00,,,0.03,0.000000,,2013-05-19 08:12:00,
2013-05-19 02:21:00,32.0,31.0,-100.00,SW,224,2.0,6.0,97,0.00,,,0.03,0.000000,,2013-05-19 08:21:00,
2013-05-19 02:32:00,32.0,31.0,-100.00,SW,224,2.0,6.0,97,0.00,,,0.03,0.000000,,2013-05-19 08:32:00,
2013-05-19 02:41:00,32.0,31.0,-100.00,SW,224,2.0,6.0,97,0.00,,,0.03,0.000000,,2013-05-19 08:41:00,
2013-05-19 03:11:00,30.0,29.0,-100.00,SW,219,5.0,9.0,97,0.00,,,0.03,0.000000,,2013-05-19 09:11:00,
2013-05-19 03:21:00,30.0,29.0,-100.00,SW,219,5.0,9.0,97,0.00,,,0.03,0.000000,,2013-05-19 09:21:00,
2013-05-19 03:32:00,30.0,29.0,-100.00,SW,219,5.0,9.0,97,0.00,,,0.03,0.000000,,2013-05-19 09:32:00,
2013-05-19 03:42:00,30.0,29.0,-100.00,SW,219,5.0,9.0,97,0.00,,,0.03,0.000000,,2013-05-19 09:42:00,
2013-05-19 04:12:00,33.0,31.0,-100.00,NNE,19,1.0,12.0,92,0.00,,,0.03,0.000000,,2013-05-19 10:12:00,
2013-05-19 04:22:00,33.0,31.0,-100.00,NNE,19,1.0,12.0,92,0.00,,,0.03,0.000000,,2013-05-19 10:22:00,
2013-05-19 04:32:00,33.0,31.0,-100.00,NNE,19,1.0,12.0,92,0.00,,,0.03,0.000000,,2013-05-19 10:32:00,
2013-05-19 04:42:00,33.0,31.0,-100.00,NNE,19,1.0,12.0,92,0.00,,,0.03,0.000000,,2013-05-19 10:42:00,
2013-05-19 05:11:00,30.0,29.0,-100.00,WSW,241,4.0,6.0,96,0.00,,,0.03,0.000000,,2013-05-19 11:11:00,
2013-05-19 05:21:00,30.0,29.0,-100.00,WSW,241,4.0,6.0,96,0.00,,,0.03,0.000000,,2013-05-19 11:21:00,
2013-05-19 05:32:00,30.0,29.0,-100.00,WSW,241,4.0,6.0,96,0.00,,,0.03,0.000000,,2013-05-19 11:32:00,
2013-05-19 05:42:00,30.0,29.0,-100.00,WSW,241,4.0,6.0,96,0.00,,,0.03,0.000000,,2013-05-19 11:42:00,
2013-05-19 06:11:00,30.0,29.0,-100.00,SSW,208,8.0,10.0,96,0.00,,,0.03,0.000000,,2013-05-19 12:11:00,
2013-05-19 06:21:00,30.0,29.0,-100.00,SSW,208,8.0,10.0,96,0.00,,,0.03,0.000000,,2013-05-19 12:21:00,
2013-05-19 06:31:00,30.0,29.0,-100.00,SSW,208,8.0,10.0,96,0.00,,,0.03,0.000000,,2013-05-19 12:31:00,
2013-05-19 06:41:00,30.0,29.0,-100.00,SSW,208,8.0,10.0,96,0.00,,,0.03,0.000000,,2013-05-19 12:41:00,
2013-05-19 07:11:00,33.0,30.0,-100.00,SSW,209,5.0,9.0,88,0.00,,,0.03,44.000000,,2013-05-19 13:11:00,
2013-05-19 07:21:00,33.0,30.0,-100.00,SSW,209,5.0,9.0,88,0.00,,,0.03,44.000000,,2013-05-19 13:21:00,
2013-05-19 07:31:00,33.0,30.0,-100.00,SSW,209,5.0,9.0,88,0.00,,,0.03,44.000000,,2013-05-19 13:31:00,
2013-05-19 07:42:00,33.0,30.0,-100.00,SSW,209,5.0,9.0,88,0.00,,,0.03,44.000000,,2013-05-19 13:42:00,
2013-05-19 08:11:00,37.0,32.0,-100.00,WSW,244,3.0,7.0,82,0.01,,,0.04,285.000000,,2013-05-19 14:11:00,
2013-05-19 08:21:00,37.0,32.0,-100.00,WSW,244,3.0,7.0,82,0.01,,,0.04,285.000000,,2013-05-19 14:21:00,
2013-05-19 08:32:00,37.0,32.0,-100.00,WSW,244,3.0,7.0,82,0.01,,,0.04,285.000000,,2013-05-19 14:32:00,
2013-05-19 08:41:00,37.0,32.0,-100.00,WSW,244,3.0,7.0,82,0.01,,,0.04,285.000000,,2013-05-19 14:41:00,
2013-05-19 09:11:00,40.0,34.0,-100.00,West,263,5.0,8.0,80,0.00,,,0.04,379.000000,,2013-05-19 15:11:00,
2013-05-19 09:21:00,40.0,34.0,-100.00,West,263,5.0,8.0,80,0.00,,,0.04,379.000000,,2013-05-19 15:21:00,
2013-05-19 09:33:00,40.0,34.0,-100.00,West,263,5.0,8.0,80,0.00,,,0.04,379.000000,,2013-05-19 15:33:00,
2013-05-19 09:43:00,40.0,34.0,-100.00,West,263,5.0,8.0,80,0.00,,,0.04,379.000000,,2013-05-19 15:43:00,
2013-05-19 10:12:00,39.0,32.0,-100.00,NNE,16,6.0,13.0,75,0.00,,,0.04,499.000000,,2013-05-19 16:12:00,
2013-05-19 10:23:00,39.0,32.0,-100.00,NNE,16,6.0,13.0,75,0.00,,,0.04,499.000000,,2013-05-19 16:23:00,
2013-05-19 10:32:00,39.0,32.0,-100.00,NNE,16,6.0,13.0,75,0.00,,,0.04,499.000000,,2013-05-19 16:32:00,
2013-05-19 10:42:00,39.0,32.0,-100.00,NNE,16,6.0,13.0,75,0.00,,,0.04,499.000000,,2013-05-19 16:42:00,
2013-05-19 11:12:00,38.0,30.0,-100.00,WSW,245,13.0,19.0,74,0.00,,,0.04,428.000000,,2013-05-19 17:12:00,
2013-05-19 11:22:00,38.0,30.0,-100.00,WSW,245,13.0,19.0,74,0.00,,,0.04,428.000000,,2013-05-19 17:22:00,
2013-05-19 11:32:00,38.0,30.0,-100.00,WSW,245,13.0,19.0,74,0.00,,,0.04,428.000000,,2013-05-19 17:32:00,
2013-05-19 11:42:00,38.0,30.0,-100.00,WSW,245,13.0,19.0,74,0.00,,,0.04,428.000000,,2013-05-19 17:42:00,
2013-05-19 12:12:00,41.0,28.0,-100.00,WSW,258,7.0,31.0,59,0.00,,,0.04,508.000000,,2013-05-19 18:12:00,
2013-05-19 12:21:00,41.0,28.0,-100.00,WSW,258,7.0,31.0,59,0.00,,,0.04,508.000000,,2013-05-19 18:21:00,
2013-05-19 12:32:00,41.0,28.0,-100.00,WSW,258,7.0,31.0,59,0.00,,,0.04,508.000000,,2013-05-19 18:32:00,
2013-05-19 12:42:00,41.0,28.0,-100.00,WSW,258,7.0,31.0,59,0.00,,,0.04,508.000000,,2013-05-19 18:42:00,
2013-05-19 13:11:00,44.0,22.0,-100.00,West,270,16.0,28.0,42,0.00,,,0.04,811.000000,,2013-05-19 19:11:00,
2013-05-19 13:21:00,44.0,22.0,-100.00,West,270,16.0,28.0,42,0.00,,,0.04,811.000000,,2013-05-19 19:21:00,
2013-05-19 13:32:00,44.0,22.0,-100.00,West,270,16.0,28.0,42,0.00,,,0.04,811.000000,,2013-05-19 19:32:00,
2013-05-19 13:42:00,44.0,22.0,-100.00,West,270,16.0,28.0,42,0.00,,,0.04,811.000000,,2013-05-19 19:42:00,
2013-05-19 14:11:00,38.0,24.0,-100.00,WSW,248,10.0,38.0,56,0.00,,,0.04,764.000000,,2013-05-19 20:11:00,
2013-05-19 14:21:00,38.0,24.0,-100.00,WSW,248,10.0,38.0,56,0.00,,,0.04,764.000000,,2013-05-19 20:21:00,
2013-05-19 14:31:00,38.0,24.0,-100.00,WSW,248,10.0,38.0,56,0.00,,,0.04,764.000000,,2013-05-19 20:31:00,
2013-05-19 14:41:00,38.0,24.0,-100.00,WSW,248,10.0,38.0,56,0.00,,,0.04,764.000000,,2013-05-19 20:41:00,
2013-05-19 15:11:00,49.0,30.0,-100.00,NNE,29,8.0,24.0,48,0.00,,,0.04,1179.000000,,2013-05-19 21:11:00,
2013-05-19 15:22:00,49.0,30.0,-100.00,NNE,29,8.0,24.0,48,0.00,,,0.04,1179.000000,,2013-05-19 21:22:00,
2013-05-19 15:32:00,49.0,30.0,-100.00,NNE,29,8.0,24.0,48,0.00,,,0.04,1179.000000,,2013-05-19 21:32:00,
2013-05-19 16:12:00,34.0,31.0,-100.00,WSW,252,16.0,23.0,88,-99.99,,,0.04,167.000000,,2013-05-19 22:12:00,
2013-05-19 16:23:00,34.0,31.0,-100.00,WSW,252,16.0,23.0,88,-99.99,,,0.04,167.000000,,2013-05-19 22:23:00,
2013-05-19 16:33:00,34.0,31.0,-100.00,WSW,252,16.0,23.0,88,-99.99,,,0.04,167.000000,,2013-05-19 22:33:00,
2013-05-19 16:42:00,34.0,31.0,-100.00,WSW,252,16.0,23.0,88,-99.99,,,0.04,167.000000,,2013-05-19 22:42:00,
2013-05-19 17:11:00,36.0,29.0,-100.00,West,269,11.0,26.0,74,0.00,,,0.04,303.000000,,2013-05-19 23:11:00,
2013-05-19 17:21:00,36.0,29.0,-100.00,West,269,11.0,26.0,74,0.00,,,0.04,303.000000,,2013-05-19 23:21:00,
2013-05-19 17:32:00,36.0,29.0,-100.00,West,269,11.0,26.0,74,0.00,,,0.04,303.000000,,2013-05-19 23:32:00,
2013-05-19 17:42:00,36.0,29.0,-100.00,West,269,11.0,26.0,74,0.00,,,0.04,303.000000,,2013-05-19 23:42:00,
2013-05-19 18:11:00,43.0,30.0,-100.00,SSW,202,11.0,21.0,59,0.00,,,0.02,455.000000,,2013-05-20 00:11:00,
2013-05-19 18:21:00,43.0,30.0,-100.00,SSW,202,11.0,21.0,59,0.00,,,0.02,455.000000,,2013-05-20 00:21:00,
2013-05-19 18:32:00,43.0,30.0,-100.00,SSW,202,11.0,21.0,59,0.00,,,0.02,455.000000,,2013-05-20 00:32:00,
2013-05-19 18:41:00,43.0,30.0,-100.00,SSW,202,11.0,21.0,59,0.00,,,0.02,455.000000,,2013-05-20 00:41:00,
2013-05-19 19:11:00,41.0,23.0,-100.00,West,270,5.0,16.0,49,-99.99,,,0.01,379.000000,,2013-05-20 01:11:00,
2013-05-19 19:21:00,41.0,23.0,-100.00,West,270,5.0,16.0,49,-99.99,,,0.01,379.000000,,2013-05-20 01:21:00,
2013-05-19 19:31:00,41.0,23.0,-100.00,West,270,5.0,16.0,49,-99.99,,,0.01,379.000000,,2013-05-20 01:31:00,
2013-05-19 19:42:00,41.0,23.0,-100.00,West,270,5.0,16.0,49,-99.99,,,0.01,379.000000,,2013-05-20 01:42:00,
2013-05-19 20:11:00,32.0,30.0,-100.00,SW,234,3.0,18.0,91,0.00,,,0.01,19.000000,,2013-05-20 02:11:00,
2013-05-19 20:21:00,32.0,30.0,-100.00,SW,234,3.0,18.0,91,0.00,,,0.01,19.000000,,2013-05-20 02:21:00,
2013-05-19 20:31:00,32.0,30.0,-100.00,SW,234,3.0,18.0,91,0.00,,,0.01,19.000000,,2013-05-20 02:31:00,
2013-05-19 20:42:00,32.0,30.0,-100.00,SW,234,3.0,18.0,91,0.00,,,0.01,19.000000,,2013-05-20 02:42:00,
2013-05-19 21:11:00,33.0,32.0,-100.00,SSW,204,14.0,18.0,96,0.00,,,0.01,2.000000,,2013-05-20 03:11:00,
2013-05-19 21:21:00,33.0,32.0,-100.00,SSW,204,14.0,18.0,96,0.00,,,0.01,2.000000,,2013-05-20 03:21:00,
2013-05-19 21:33:00,33.0,32.0,-100.00,SSW,204,14.0,18.0,96,0.00,,,0.01,2.000000,,2013-05-20 03:33:00,
2013-05-19 21:42:00,33.0,32.0,-100.00,SSW,204,14.0,18.0,96,0.00,,,0.01,2.000000,,2013-05-20 03:42:00,
2013-05-19 22:12:00,33.0,31.0,-100.00,SSW,202,8.0,16.0,91,0.00,,,0.01,0.000000,,2013-05-20 04:12:00,
2013-05-19 22:23:00,33.0,31.0,-100.00,SSW,202,8.0,16.0,91,0.00,,,0.01,0.000000,,2013-05-20 04:23:00,
2013-05-19 22:33:00,33.0,31.0,-100.00,SSW,202,8.0,16.0,91,0.00,,,0.01,0.000000,,2013-05-20 04:33:00,
2013-05-19 22:42:00,33.0,31.0,-100.00,SSW,202,8.0,16.0,91,0.00,,,0.01,0.000000,,2013-05-20 04:42:00,
2013-05-19 23:12:00,33.0,30.0,-100.00,SW,234,5.0,9.0,88,0.00,,,0.01,0.000000,,2013-05-20 05:12:00,
2013-05-19 23:21:00,33.0,30.0,-100.00,SW,234,5.0,9.0,88,0.00,,,0.01,0.000000,,2013-05-20 05:21:00,
2013-05-19 23:32:00,33.0,30.0,-100.00,SW,234,5.0,9.0,88,0.00,,,0.01,0.000000,,2013-05-20 05:32:00,
2013-05-19 23:42:00,33.0,30.0,-100.00,SW,234,5.0,9.0,88,0.00,,,0.01,0.000000,,2013-05-20 05:42:00,